Postoak, Texas
Current Conditions -  °F | °C
As of 5:55 PM on Friday 21 Nov 2014 (Local Time) from K0F2 Reporting Station
Clear Clear  
Wind Chill: 64°   Ceiling: Unl
Heat Index: 64°   Visibility: 10mi
Dew Point: 59°   Wind: 5mph
Humidity: 86%   Direction: 120°ESE
Pressure: 30.02"   Gusts: NA
Location:  33.5529°N, 97.8448°W
Report Text: K0F2 212355Z AUTO 12004KT 10SM CLR 18/15 A3002 RMK AO2 T01750151 10221 20175
Loading
Personal Weather Stations






























Interactive Weather Map New forecast layout! Learn more

10-Day Weather Forecast

Advertisements
Track Severe Weather on mobile